sensor_id;sensor_type;location;lat;lon;timestamp;temperature;humidity
21331;DHT22;10824;51.632;4.950;2023-06-10T00:02:03;23.10;1.00
21331;DHT22;10824;51.632;4.950;2023-06-10T00:04:30;23.10;1.00
21331;DHT22;10824;51.632;4.950;2023-06-10T00:06:57;23.10;1.00
21331;DHT22;10824;51.632;4.950;2023-06-10T00:09:25;23.10;1.00
21331;DHT22;10824;51.632;4.950;2023-06-10T00:11:52;23.10;1.00
21331;DHT22;10824;51.632;4.950;2023-06-10T00:14:19;23.00;1.00
21331;DHT22;10824;51.632;4.950;2023-06-10T00:16:46;23.00;1.00
21331;DHT22;10824;51.632;4.950;2023-06-10T00:19:14;23.00;1.00
21331;DHT22;10824;51.632;4.950;2023-06-10T00:21:42;23.00;1.00
21331;DHT22;10824;51.632;4.950;2023-06-10T00:24:11;22.80;1.00
21331;DHT22;10824;51.632;4.950;2023-06-10T00:26:39;22.80;1.00
21331;DHT22;10824;51.632;4.950;2023-06-10T00:29:08;22.70;1.00
21331;DHT22;10824;51.632;4.950;2023-06-10T00:31:37;22.70;1.00
21331;DHT22;10824;51.632;4.950;2023-06-10T00:34:07;22.70;1.00
21331;DHT22;10824;51.632;4.950;2023-06-10T00:36:35;22.70;1.00
21331;DHT22;10824;51.632;4.950;2023-06-10T00:39:03;22.70;1.00
21331;DHT22;10824;51.632;4.950;2023-06-10T00:41:31;22.60;1.00
21331;DHT22;10824;51.632;4.950;2023-06-10T00:44:01;22.60;1.00
21331;DHT22;10824;51.632;4.950;2023-06-10T00:46:30;22.50;1.00
21331;DHT22;10824;51.632;4.950;2023-06-10T00:49:01;22.50;1.00
21331;DHT22;10824;51.632;4.950;2023-06-10T00:51:30;22.40;1.00
21331;DHT22;10824;51.632;4.950;2023-06-10T00:53:59;22.40;1.00
21331;DHT22;10824;51.632;4.950;2023-06-10T00:56:27;22.30;1.00
21331;DHT22;10824;51.632;4.950;2023-06-10T00:58:55;22.30;1.00
21331;DHT22;10824;51.632;4.950;2023-06-10T01:01:22;22.30;1.00
21331;DHT22;10824;51.632;4.950;2023-06-10T01:03:50;22.20;1.00
21331;DHT22;10824;51.632;4.950;2023-06-10T01:06:24;22.20;1.00
21331;DHT22;10824;51.632;4.950;2023-06-10T01:11:56;22.00;1.00
21331;DHT22;10824;51.632;4.950;2023-06-10T01:14:26;21.90;1.00
21331;DHT22;10824;51.632;4.950;2023-06-10T01:16:53;21.90;1.00
21331;DHT22;10824;51.632;4.950;2023-06-10T01:19:21;21.90;1.00
21331;DHT22;10824;51.632;4.950;2023-06-10T01:21:51;21.80;1.00
21331;DHT22;10824;51.632;4.950;2023-06-10T01:24:18;21.80;1.00
21331;DHT22;10824;51.632;4.950;2023-06-10T01:26:48;21.70;2.50
21331;DHT22;10824;51.632;4.950;2023-06-10T01:29:22;21.80;3.60
21331;DHT22;10824;51.632;4.950;2023-06-10T01:34:21;21.70;3.50
21331;DHT22;10824;51.632;4.950;2023-06-10T01:36:50;21.60;4.30
21331;DHT22;10824;51.632;4.950;2023-06-10T01:39:21;21.60;6.40
21331;DHT22;10824;51.632;4.950;2023-06-10T01:41:49;21.60;8.50
21331;DHT22;10824;51.632;4.950;2023-06-10T01:44:19;21.50;30.90
21331;DHT22;10824;51.632;4.950;2023-06-10T01:46:46;21.40;11.80
21331;DHT22;10824;51.632;4.950;2023-06-10T01:49:13;21.50;11.80
21331;DHT22;10824;51.632;4.950;2023-06-10T01:51:43;21.50;12.40
21331;DHT22;10824;51.632;4.950;2023-06-10T01:54:10;21.40;13.00
21331;DHT22;10824;51.632;4.950;2023-06-10T01:56:37;21.40;15.70
21331;DHT22;10824;51.632;4.950;2023-06-10T01:59:04;21.40;17.80
21331;DHT22;10824;51.632;4.950;2023-06-10T02:01:33;21.40;17.30
21331;DHT22;10824;51.632;4.950;2023-06-10T02:04:01;21.30;19.30
21331;DHT22;10824;51.632;4.950;2023-06-10T02:06:31;21.20;22.70
21331;DHT22;10824;51.632;4.950;2023-06-10T02:08:58;21.20;24.10
21331;DHT22;10824;51.632;4.950;2023-06-10T02:11:29;21.10;27.00
21331;DHT22;10824;51.632;4.950;2023-06-10T02:13:58;21.10;31.50
21331;DHT22;10824;51.632;4.950;2023-06-10T02:16:26;21.10;35.00
21331;DHT22;10824;51.632;4.950;2023-06-10T02:18:55;21.10;39.10
21331;DHT22;10824;51.632;4.950;2023-06-10T02:21:22;21.00;39.60
21331;DHT22;10824;51.632;4.950;2023-06-10T02:23:49;20.90;46.80
21331;DHT22;10824;51.632;4.950;2023-06-10T02:26:22;20.90;51.90
21331;DHT22;10824;51.632;4.950;2023-06-10T02:28:50;20.90;54.10
21331;DHT22;10824;51.632;4.950;2023-06-10T02:31:17;20.80;57.20
21331;DHT22;10824;51.632;4.950;2023-06-10T02:33:45;20.80;57.50
21331;DHT22;10824;51.632;4.950;2023-06-10T02:36:13;20.80;71.40
21331;DHT22;10824;51.632;4.950;2023-06-10T02:38:42;20.80;73.00
21331;DHT22;10824;51.632;4.950;2023-06-10T02:41:10;20.70;79.00
21331;DHT22;10824;51.632;4.950;2023-06-10T02:43:39;20.70;90.50
21331;DHT22;10824;51.632;4.950;2023-06-10T02:46:07;20.60;92.70
21331;DHT22;10824;51.632;4.950;2023-06-10T02:48:45;20.60;99.50
21331;DHT22;10824;51.632;4.950;2023-06-10T02:51:18;20.60;99.90
21331;DHT22;10824;51.632;4.950;2023-06-10T02:53:48;20.60;99.90
21331;DHT22;10824;51.632;4.950;2023-06-10T02:56:18;20.60;99.90
21331;DHT22;10824;51.632;4.950;2023-06-10T02:58:46;20.60;99.90
21331;DHT22;10824;51.632;4.950;2023-06-10T03:01:15;20.50;99.90
21331;DHT22;10824;51.632;4.950;2023-06-10T03:03:51;20.50;99.90
21331;DHT22;10824;51.632;4.950;2023-06-10T03:06:19;20.40;99.90
21331;DHT22;10824;51.632;4.950;2023-06-10T03:08:46;20.40;99.90
21331;DHT22;10824;51.632;4.950;2023-06-10T03:11:17;20.30;99.90
21331;DHT22;10824;51.632;4.950;2023-06-10T03:13:47;20.20;99.90
21331;DHT22;10824;51.632;4.950;2023-06-10T03:16:16;20.20;99.90
21331;DHT22;10824;51.632;4.950;2023-06-10T03:18:45;20.30;99.90
21331;DHT22;10824;51.632;4.950;2023-06-10T03:21:12;20.20;99.90
21331;DHT22;10824;51.632;4.950;2023-06-10T03:23:41;20.20;99.90
21331;DHT22;10824;51.632;4.950;2023-06-10T03:26:08;20.10;99.90
21331;DHT22;10824;51.632;4.950;2023-06-10T03:28:39;20.10;99.90
21331;DHT22;10824;51.632;4.950;2023-06-10T03:31:08;20.10;99.90
21331;DHT22;10824;51.632;4.950;2023-06-10T03:33:37;20.10;99.90
21331;DHT22;10824;51.632;4.950;2023-06-10T03:36:06;20.10;99.90
21331;DHT22;10824;51.632;4.950;2023-06-10T03:38:34;20.10;99.90
21331;DHT22;10824;51.632;4.950;2023-06-10T03:41:01;20.00;99.90
21331;DHT22;10824;51.632;4.950;2023-06-10T03:43:29;19.90;99.90
21331;DHT22;10824;51.632;4.950;2023-06-10T03:45:58;19.90;99.90
21331;DHT22;10824;51.632;4.950;2023-06-10T03:48:26;19.90;99.90
21331;DHT22;10824;51.632;4.950;2023-06-10T03:50:53;19.90;99.90
21331;DHT22;10824;51.632;4.950;2023-06-10T03:53:21;19.90;99.90
21331;DHT22;10824;51.632;4.950;2023-06-10T03:55:48;19.80;99.90
21331;DHT22;10824;51.632;4.950;2023-06-10T03:58:18;19.80;99.90
21331;DHT22;10824;51.632;4.950;2023-06-10T04:00:46;19.80;99.90
21331;DHT22;10824;51.632;4.950;2023-06-10T04:03:13;19.80;99.90
21331;DHT22;10824;51.632;4.950;2023-06-10T04:05:48;19.90;99.90
21331;DHT22;10824;51.632;4.950;2023-06-10T04:08:17;19.90;99.90
21331;DHT22;10824;51.632;4.950;2023-06-10T04:10:45;19.80;99.90
21331;DHT22;10824;51.632;4.950;2023-06-10T04:13:12;19.90;99.90
21331;DHT22;10824;51.632;4.950;2023-06-10T04:15:50;19.90;99.90
21331;DHT22;10824;51.632;4.950;2023-06-10T04:18:19;19.90;99.90
21331;DHT22;10824;51.632;4.950;2023-06-10T04:20:47;19.90;99.90
21331;DHT22;10824;51.632;4.950;2023-06-10T04:23:17;19.90;99.90
21331;DHT22;10824;51.632;4.950;2023-06-10T04:25:46;20.00;99.90
21331;DHT22;10824;51.632;4.950;2023-06-10T04:28:14;20.10;99.90
21331;DHT22;10824;51.632;4.950;2023-06-10T04:30:42;20.00;99.90
21331;DHT22;10824;51.632;4.950;2023-06-10T04:33:10;20.00;99.90
21331;DHT22;10824;51.632;4.950;2023-06-10T04:35:38;20.00;99.90
21331;DHT22;10824;51.632;4.950;2023-06-10T04:38:07;20.20;99.90
21331;DHT22;10824;51.632;4.950;2023-06-10T04:40:34;20.30;99.90
21331;DHT22;10824;51.632;4.950;2023-06-10T04:43:03;20.20;99.90
21331;DHT22;10824;51.632;4.950;2023-06-10T04:45:32;20.20;99.90
21331;DHT22;10824;51.632;4.950;2023-06-10T04:48:00;20.20;99.90
21331;DHT22;10824;51.632;4.950;2023-06-10T04:50:27;20.20;99.90
21331;DHT22;10824;51.632;4.950;2023-06-10T04:52:54;20.20;99.90
21331;DHT22;10824;51.632;4.950;2023-06-10T04:55:24;20.30;99.90
21331;DHT22;10824;51.632;4.950;2023-06-10T04:57:52;20.30;99.90
21331;DHT22;10824;51.632;4.950;2023-06-10T05:00:20;20.30;99.90
21331;DHT22;10824;51.632;4.950;2023-06-10T05:02:47;20.30;99.90
21331;DHT22;10824;51.632;4.950;2023-06-10T05:05:20;20.40;99.90
21331;DHT22;10824;51.632;4.950;2023-06-10T05:07:47;20.50;99.90
21331;DHT22;10824;51.632;4.950;2023-06-10T05:10:16;20.50;99.90
21331;DHT22;10824;51.632;4.950;2023-06-10T05:12:43;20.50;99.90
21331;DHT22;10824;51.632;4.950;2023-06-10T05:15:11;20.60;99.90
21331;DHT22;10824;51.632;4.950;2023-06-10T05:17:38;20.60;99.90
21331;DHT22;10824;51.632;4.950;2023-06-10T05:20:06;20.70;99.90
21331;DHT22;10824;51.632;4.950;2023-06-10T05:22:33;20.70;99.90
21331;DHT22;10824;51.632;4.950;2023-06-10T05:25:01;20.80;99.90
21331;DHT22;10824;51.632;4.950;2023-06-10T05:27:28;20.80;99.90
21331;DHT22;10824;51.632;4.950;2023-06-10T05:29:55;20.90;99.90
21331;DHT22;10824;51.632;4.950;2023-06-10T05:32:23;20.80;99.90
21331;DHT22;10824;51.632;4.950;2023-06-10T05:34:50;20.90;99.90
21331;DHT22;10824;51.632;4.950;2023-06-10T05:37:17;21.00;99.90
21331;DHT22;10824;51.632;4.950;2023-06-10T05:39:44;20.90;99.90
21331;DHT22;10824;51.632;4.950;2023-06-10T05:42:11;21.00;99.90
21331;DHT22;10824;51.632;4.950;2023-06-10T05:44:39;21.00;99.90
21331;DHT22;10824;51.632;4.950;2023-06-10T05:47:07;21.10;99.90
21331;DHT22;10824;51.632;4.950;2023-06-10T05:49:35;21.10;99.90
21331;DHT22;10824;51.632;4.950;2023-06-10T05:52:02;21.20;99.90
21331;DHT22;10824;51.632;4.950;2023-06-10T05:54:32;21.20;99.90
21331;DHT22;10824;51.632;4.950;2023-06-10T05:57:09;21.30;99.90
21331;DHT22;10824;51.632;4.950;2023-06-10T05:59:37;21.40;99.90
21331;DHT22;10824;51.632;4.950;2023-06-10T06:02:04;21.50;99.90
21331;DHT22;10824;51.632;4.950;2023-06-10T06:04:32;21.60;99.90
21331;DHT22;10824;51.632;4.950;2023-06-10T06:06:59;21.60;99.90
21331;DHT22;10824;51.632;4.950;2023-06-10T06:09:26;21.60;99.90
21331;DHT22;10824;51.632;4.950;2023-06-10T06:11:54;21.70;99.90
21331;DHT22;10824;51.632;4.950;2023-06-10T06:14:22;21.80;99.90
21331;DHT22;10824;51.632;4.950;2023-06-10T06:16:49;21.90;99.90
21331;DHT22;10824;51.632;4.950;2023-06-10T06:19:16;22.00;99.90
21331;DHT22;10824;51.632;4.950;2023-06-10T06:21:43;22.10;99.90
21331;DHT22;10824;51.632;4.950;2023-06-10T06:24:10;22.10;99.90
21331;DHT22;10824;51.632;4.950;2023-06-10T06:26:37;22.10;99.90
21331;DHT22;10824;51.632;4.950;2023-06-10T06:29:04;22.20;99.90
21331;DHT22;10824;51.632;4.950;2023-06-10T06:31:34;22.30;99.90
21331;DHT22;10824;51.632;4.950;2023-06-10T06:34:02;22.30;99.90
21331;DHT22;10824;51.632;4.950;2023-06-10T06:36:31;22.50;99.90
21331;DHT22;10824;51.632;4.950;2023-06-10T06:38:58;22.60;99.90
21331;DHT22;10824;51.632;4.950;2023-06-10T06:41:27;22.60;99.90
21331;DHT22;10824;51.632;4.950;2023-06-10T06:43:55;22.60;99.90
21331;DHT22;10824;51.632;4.950;2023-06-10T06:46:32;22.80;99.90
21331;DHT22;10824;51.632;4.950;2023-06-10T06:49:00;22.90;99.90
21331;DHT22;10824;51.632;4.950;2023-06-10T06:51:27;22.80;99.90
21331;DHT22;10824;51.632;4.950;2023-06-10T06:53:59;22.90;99.90
21331;DHT22;10824;51.632;4.950;2023-06-10T06:56:35;23.00;99.90
21331;DHT22;10824;51.632;4.950;2023-06-10T06:59:02;23.10;99.90
21331;DHT22;10824;51.632;4.950;2023-06-10T07:01:33;23.20;99.90
21331;DHT22;10824;51.632;4.950;2023-06-10T07:04:05;23.50;99.90
21331;DHT22;10824;51.632;4.950;2023-06-10T07:06:32;23.50;99.60
21331;DHT22;10824;51.632;4.950;2023-06-10T07:09:02;23.40;81.70
21331;DHT22;10824;51.632;4.950;2023-06-10T07:11:30;23.60;89.30
21331;DHT22;10824;51.632;4.950;2023-06-10T07:13:57;23.80;86.00
21331;DHT22;10824;51.632;4.950;2023-06-10T07:16:28;23.80;70.40
21331;DHT22;10824;51.632;4.950;2023-06-10T07:19:00;23.80;64.80
21331;DHT22;10824;51.632;4.950;2023-06-10T07:21:32;24.00;61.30
21331;DHT22;10824;51.632;4.950;2023-06-10T07:24:01;24.10;47.80
21331;DHT22;10824;51.632;4.950;2023-06-10T07:26:28;24.10;39.50
21331;DHT22;10824;51.632;4.950;2023-06-10T07:28:56;24.20;38.40
21331;DHT22;10824;51.632;4.950;2023-06-10T07:31:28;24.40;43.10
21331;DHT22;10824;51.632;4.950;2023-06-10T07:33:59;24.50;35.30
21331;DHT22;10824;51.632;4.950;2023-06-10T07:36:27;24.60;27.50
21331;DHT22;10824;51.632;4.950;2023-06-10T07:38:55;24.60;26.30
21331;DHT22;10824;51.632;4.950;2023-06-10T07:41:25;24.60;14.00
21331;DHT22;10824;51.632;4.950;2023-06-10T07:43:55;24.70;13.80
21331;DHT22;10824;51.632;4.950;2023-06-10T07:46:23;24.70;9.50
21331;DHT22;10824;51.632;4.950;2023-06-10T07:48:58;25.00;9.60
21331;DHT22;10824;51.632;4.950;2023-06-10T07:51:26;25.00;6.30
21331;DHT22;10824;51.632;4.950;2023-06-10T07:53:54;25.00;1.00
21331;DHT22;10824;51.632;4.950;2023-06-10T07:56:22;25.00;1.00
21331;DHT22;10824;51.632;4.950;2023-06-10T07:58:53;25.00;1.00
21331;DHT22;10824;51.632;4.950;2023-06-10T08:01:22;25.10;1.00
21331;DHT22;10824;51.632;4.950;2023-06-10T08:03:50;25.40;1.00
21331;DHT22;10824;51.632;4.950;2023-06-10T08:06:18;25.50;1.00
21331;DHT22;10824;51.632;4.950;2023-06-10T08:08:46;25.60;1.00
21331;DHT22;10824;51.632;4.950;2023-06-10T08:11:14;25.70;1.00
21331;DHT22;10824;51.632;4.950;2023-06-10T08:13:42;25.70;1.00
21331;DHT22;10824;51.632;4.950;2023-06-10T08:16:10;25.70;1.00
21331;DHT22;10824;51.632;4.950;2023-06-10T08:18:37;25.90;1.00
21331;DHT22;10824;51.632;4.950;2023-06-10T08:21:05;25.80;1.00
21331;DHT22;10824;51.632;4.950;2023-06-10T08:23:34;26.00;1.00
21331;DHT22;10824;51.632;4.950;2023-06-10T08:26:02;26.20;1.00
21331;DHT22;10824;51.632;4.950;2023-06-10T08:28:30;26.30;1.00
21331;DHT22;10824;51.632;4.950;2023-06-10T08:31:01;26.40;1.00
21331;DHT22;10824;51.632;4.950;2023-06-10T08:33:28;26.20;1.00
21331;DHT22;10824;51.632;4.950;2023-06-10T08:35:56;26.30;1.00
21331;DHT22;10824;51.632;4.950;2023-06-10T08:38:24;26.60;1.00
21331;DHT22;10824;51.632;4.950;2023-06-10T08:40:56;26.70;1.00
21331;DHT22;10824;51.632;4.950;2023-06-10T08:43:39;26.70;1.00
21331;DHT22;10824;51.632;4.950;2023-06-10T08:46:09;26.80;1.00
21331;DHT22;10824;51.632;4.950;2023-06-10T08:48:42;27.00;1.00
21331;DHT22;10824;51.632;4.950;2023-06-10T08:51:19;26.90;1.00
21331;DHT22;10824;51.632;4.950;2023-06-10T08:54:11;27.00;1.00
21331;DHT22;10824;51.632;4.950;2023-06-10T08:56:41;26.90;1.00
21331;DHT22;10824;51.632;4.950;2023-06-10T08:59:10;27.00;1.00
21331;DHT22;10824;51.632;4.950;2023-06-10T09:01:38;27.10;1.00
21331;DHT22;10824;51.632;4.950;2023-06-10T09:04:05;27.10;1.00
21331;DHT22;10824;51.632;4.950;2023-06-10T09:06:33;27.40;1.00
21331;DHT22;10824;51.632;4.950;2023-06-10T09:09:02;27.70;1.00
21331;DHT22;10824;51.632;4.950;2023-06-10T09:11:30;27.90;1.00
21331;DHT22;10824;51.632;4.950;2023-06-10T09:13:58;28.00;1.00
21331;DHT22;10824;51.632;4.950;2023-06-10T09:16:26;28.10;1.00
21331;DHT22;10824;51.632;4.950;2023-06-10T09:18:53;28.10;1.00
21331;DHT22;10824;51.632;4.950;2023-06-10T09:21:26;28.10;1.00
21331;DHT22;10824;51.632;4.950;2023-06-10T09:23:53;28.20;1.00
21331;DHT22;10824;51.632;4.950;2023-06-10T09:26:28;28.50;1.00
21331;DHT22;10824;51.632;4.950;2023-06-10T09:29:08;28.70;1.00
21331;DHT22;10824;51.632;4.950;2023-06-10T09:31:38;28.80;1.00
21331;DHT22;10824;51.632;4.950;2023-06-10T09:34:16;28.60;1.00
21331;DHT22;10824;51.632;4.950;2023-06-10T09:36:44;28.70;1.00
21331;DHT22;10824;51.632;4.950;2023-06-10T09:39:17;28.50;1.00
21331;DHT22;10824;51.632;4.950;2023-06-10T09:41:45;28.50;1.00
21331;DHT22;10824;51.632;4.950;2023-06-10T09:44:18;29.00;1.00
21331;DHT22;10824;51.632;4.950;2023-06-10T09:46:51;28.90;1.00
21331;DHT22;10824;51.632;4.950;2023-06-10T09:49:46;28.70;1.00
21331;DHT22;10824;51.632;4.950;2023-06-10T09:52:21;28.80;1.00
21331;DHT22;10824;51.632;4.950;2023-06-10T09:54:51;28.70;1.00
21331;DHT22;10824;51.632;4.950;2023-06-10T09:57:21;28.70;1.00
21331;DHT22;10824;51.632;4.950;2023-06-10T09:59:54;29.10;1.00
21331;DHT22;10824;51.632;4.950;2023-06-10T10:02:22;28.90;1.00
21331;DHT22;10824;51.632;4.950;2023-06-10T10:04:51;29.00;1.00
21331;DHT22;10824;51.632;4.950;2023-06-10T10:07:19;29.20;1.00
21331;DHT22;10824;51.632;4.950;2023-06-10T10:09:49;29.20;1.00
21331;DHT22;10824;51.632;4.950;2023-06-10T10:12:24;29.30;1.00
21331;DHT22;10824;51.632;4.950;2023-06-10T10:14:55;29.40;1.00
21331;DHT22;10824;51.632;4.950;2023-06-10T10:17:24;29.60;1.00
21331;DHT22;10824;51.632;4.950;2023-06-10T10:20:03;29.50;1.00
21331;DHT22;10824;51.632;4.950;2023-06-10T10:22:37;29.60;1.00
21331;DHT22;10824;51.632;4.950;2023-06-10T10:25:13;29.40;1.00
21331;DHT22;10824;51.632;4.950;2023-06-10T10:27:48;29.60;1.00
21331;DHT22;10824;51.632;4.950;2023-06-10T10:30:18;29.80;1.00
21331;DHT22;10824;51.632;4.950;2023-06-10T10:33:31;29.90;1.00
21331;DHT22;10824;51.632;4.950;2023-06-10T10:35:41;30.00;1.00
21331;DHT22;10824;51.632;4.950;2023-06-10T10:38:13;30.20;1.00
21331;DHT22;10824;51.632;4.950;2023-06-10T10:40:41;29.90;1.00
21331;DHT22;10824;51.632;4.950;2023-06-10T10:43:09;30.20;1.00
21331;DHT22;10824;51.632;4.950;2023-06-10T10:45:37;30.30;1.00
21331;DHT22;10824;51.632;4.950;2023-06-10T10:48:10;30.40;1.00
21331;DHT22;10824;51.632;4.950;2023-06-10T10:50:39;30.10;1.00
21331;DHT22;10824;51.632;4.950;2023-06-10T10:53:08;30.30;1.00
21331;DHT22;10824;51.632;4.950;2023-06-10T10:55:35;30.40;1.00
21331;DHT22;10824;51.632;4.950;2023-06-10T10:58:06;30.50;1.00
21331;DHT22;10824;51.632;4.950;2023-06-10T11:00:35;30.40;1.00
21331;DHT22;10824;51.632;4.950;2023-06-10T11:05:41;30.80;1.00
21331;DHT22;10824;51.632;4.950;2023-06-10T11:08:11;30.80;1.00
21331;DHT22;10824;51.632;4.950;2023-06-10T11:10:40;30.90;1.00
21331;DHT22;10824;51.632;4.950;2023-06-10T11:13:09;31.10;1.00
21331;DHT22;10824;51.632;4.950;2023-06-10T11:15:44;31.10;1.00
21331;DHT22;10824;51.632;4.950;2023-06-10T11:18:29;31.10;1.00
21331;DHT22;10824;51.632;4.950;2023-06-10T11:21:04;31.50;1.00
21331;DHT22;10824;51.632;4.950;2023-06-10T11:23:38;31.10;1.00
21331;DHT22;10824;51.632;4.950;2023-06-10T11:26:19;31.30;1.00
21331;DHT22;10824;51.632;4.950;2023-06-10T11:34:01;31.70;1.00
21331;DHT22;10824;51.632;4.950;2023-06-10T11:36:36;31.80;1.00
21331;DHT22;10824;51.632;4.950;2023-06-10T11:39:06;31.60;1.00
21331;DHT22;10824;51.632;4.950;2023-06-10T11:41:35;31.60;1.00
21331;DHT22;10824;51.632;4.950;2023-06-10T11:44:08;31.80;1.00
21331;DHT22;10824;51.632;4.950;2023-06-10T11:46:35;31.60;1.00
21331;DHT22;10824;51.632;4.950;2023-06-10T11:49:06;32.00;1.00
21331;DHT22;10824;51.632;4.950;2023-06-10T11:51:40;32.20;1.00
21331;DHT22;10824;51.632;4.950;2023-06-10T11:54:11;31.70;1.00
21331;DHT22;10824;51.632;4.950;2023-06-10T11:56:38;31.60;1.00
21331;DHT22;10824;51.632;4.950;2023-06-10T11:59:06;31.60;1.00
21331;DHT22;10824;51.632;4.950;2023-06-10T12:01:42;32.20;1.00
21331;DHT22;10824;51.632;4.950;2023-06-10T12:04:15;32.10;1.00
21331;DHT22;10824;51.632;4.950;2023-06-10T12:06:49;32.50;1.00
21331;DHT22;10824;51.632;4.950;2023-06-10T12:11:54;33.00;1.00
21331;DHT22;10824;51.632;4.950;2023-06-10T12:14:56;33.00;1.00
21331;DHT22;10824;51.632;4.950;2023-06-10T12:20:03;32.30;1.00
21331;DHT22;10824;51.632;4.950;2023-06-10T12:22:44;32.80;1.00
21331;DHT22;10824;51.632;4.950;2023-06-10T12:25:14;32.90;1.00
21331;DHT22;10824;51.632;4.950;2023-06-10T12:27:51;32.30;1.00
21331;DHT22;10824;51.632;4.950;2023-06-10T12:30:25;32.40;1.00
21331;DHT22;10824;51.632;4.950;2023-06-10T12:32:53;32.70;1.00
21331;DHT22;10824;51.632;4.950;2023-06-10T12:35:23;32.80;1.00
21331;DHT22;10824;51.632;4.950;2023-06-10T12:38:01;33.00;1.00
21331;DHT22;10824;51.632;4.950;2023-06-10T12:40:36;33.20;1.00
21331;DHT22;10824;51.632;4.950;2023-06-10T12:43:10;32.90;1.00
21331;DHT22;10824;51.632;4.950;2023-06-10T12:45:39;32.90;1.00
21331;DHT22;10824;51.632;4.950;2023-06-10T12:48:23;33.30;1.00
21331;DHT22;10824;51.632;4.950;2023-06-10T12:50:55;33.30;1.00
21331;DHT22;10824;51.632;4.950;2023-06-10T12:53:23;33.20;1.00
21331;DHT22;10824;51.632;4.950;2023-06-10T12:55:51;33.20;1.00
21331;DHT22;10824;51.632;4.950;2023-06-10T12:58:20;33.20;1.00
21331;DHT22;10824;51.632;4.950;2023-06-10T13:00:47;32.70;1.00
21331;DHT22;10824;51.632;4.950;2023-06-10T13:03:15;32.80;1.00
21331;DHT22;10824;51.632;4.950;2023-06-10T13:05:43;32.90;1.00
21331;DHT22;10824;51.632;4.950;2023-06-10T13:08:10;32.90;1.00
21331;DHT22;10824;51.632;4.950;2023-06-10T13:10:38;32.90;1.00
21331;DHT22;10824;51.632;4.950;2023-06-10T13:13:05;33.10;1.00
21331;DHT22;10824;51.632;4.950;2023-06-10T13:15:34;32.50;1.00
21331;DHT22;10824;51.632;4.950;2023-06-10T13:18:09;32.40;1.00
21331;DHT22;10824;51.632;4.950;2023-06-10T13:20:37;32.40;1.00
21331;DHT22;10824;51.632;4.950;2023-06-10T13:23:04;32.90;1.00
21331;DHT22;10824;51.632;4.950;2023-06-10T13:25:31;32.80;1.00
21331;DHT22;10824;51.632;4.950;2023-06-10T13:27:59;32.90;1.00
21331;DHT22;10824;51.632;4.950;2023-06-10T13:30:27;33.10;1.00
21331;DHT22;10824;51.632;4.950;2023-06-10T13:32:54;33.20;1.00
21331;DHT22;10824;51.632;4.950;2023-06-10T13:35:22;33.20;1.00
21331;DHT22;10824;51.632;4.950;2023-06-10T13:37:49;33.30;1.00
21331;DHT22;10824;51.632;4.950;2023-06-10T13:40:16;33.50;1.00
21331;DHT22;10824;51.632;4.950;2023-06-10T13:42:43;33.10;1.00
21331;DHT22;10824;51.632;4.950;2023-06-10T13:45:11;33.30;1.00
21331;DHT22;10824;51.632;4.950;2023-06-10T13:47:38;33.30;1.00
21331;DHT22;10824;51.632;4.950;2023-06-10T13:50:07;33.50;1.00
21331;DHT22;10824;51.632;4.950;2023-06-10T13:52:34;33.40;1.00
21331;DHT22;10824;51.632;4.950;2023-06-10T13:55:01;33.60;1.00
21331;DHT22;10824;51.632;4.950;2023-06-10T13:57:28;33.90;1.00
21331;DHT22;10824;51.632;4.950;2023-06-10T13:59:57;33.80;1.00
21331;DHT22;10824;51.632;4.950;2023-06-10T14:02:24;33.80;1.00
21331;DHT22;10824;51.632;4.950;2023-06-10T14:04:52;33.70;1.00
21331;DHT22;10824;51.632;4.950;2023-06-10T14:07:19;33.20;1.00
21331;DHT22;10824;51.632;4.950;2023-06-10T14:09:46;33.50;1.00
21331;DHT22;10824;51.632;4.950;2023-06-10T14:12:13;33.60;1.00
21331;DHT22;10824;51.632;4.950;2023-06-10T14:14:41;33.20;1.00
21331;DHT22;10824;51.632;4.950;2023-06-10T14:17:08;33.50;1.00
21331;DHT22;10824;51.632;4.950;2023-06-10T14:19:35;33.60;1.00
21331;DHT22;10824;51.632;4.950;2023-06-10T14:22:02;33.90;1.00
21331;DHT22;10824;51.632;4.950;2023-06-10T14:24:34;34.10;1.00
21331;DHT22;10824;51.632;4.950;2023-06-10T14:27:04;33.40;1.00
21331;DHT22;10824;51.632;4.950;2023-06-10T14:29:31;33.60;1.00
21331;DHT22;10824;51.632;4.950;2023-06-10T14:32:00;33.10;1.00
21331;DHT22;10824;51.632;4.950;2023-06-10T14:34:31;32.80;1.00
21331;DHT22;10824;51.632;4.950;2023-06-10T14:37:00;33.10;1.00
21331;DHT22;10824;51.632;4.950;2023-06-10T14:39:30;33.70;1.00
21331;DHT22;10824;51.632;4.950;2023-06-10T14:41:57;33.80;1.00
21331;DHT22;10824;51.632;4.950;2023-06-10T14:44:24;33.80;1.00
21331;DHT22;10824;51.632;4.950;2023-06-10T14:46:51;33.40;1.00
21331;DHT22;10824;51.632;4.950;2023-06-10T14:49:18;33.70;1.00
21331;DHT22;10824;51.632;4.950;2023-06-10T14:51:45;33.50;1.00
21331;DHT22;10824;51.632;4.950;2023-06-10T14:54:14;33.40;1.00
21331;DHT22;10824;51.632;4.950;2023-06-10T14:56:41;33.40;1.00
21331;DHT22;10824;51.632;4.950;2023-06-10T14:59:10;33.40;1.00
21331;DHT22;10824;51.632;4.950;2023-06-10T15:01:37;33.50;1.00
21331;DHT22;10824;51.632;4.950;2023-06-10T15:04:09;33.60;1.00
21331;DHT22;10824;51.632;4.950;2023-06-10T15:06:36;33.80;1.00
21331;DHT22;10824;51.632;4.950;2023-06-10T15:09:03;33.80;1.00
21331;DHT22;10824;51.632;4.950;2023-06-10T15:11:30;34.10;1.00
21331;DHT22;10824;51.632;4.950;2023-06-10T15:13:57;33.90;1.00
21331;DHT22;10824;51.632;4.950;2023-06-10T15:16:24;33.60;1.00
21331;DHT22;10824;51.632;4.950;2023-06-10T15:18:52;33.80;1.00
21331;DHT22;10824;51.632;4.950;2023-06-10T15:21:19;33.30;1.00
21331;DHT22;10824;51.632;4.950;2023-06-10T15:23:46;33.30;1.00
21331;DHT22;10824;51.632;4.950;2023-06-10T15:26:14;33.40;1.00
21331;DHT22;10824;51.632;4.950;2023-06-10T15:28:41;33.50;1.00
21331;DHT22;10824;51.632;4.950;2023-06-10T15:31:09;33.30;1.00
21331;DHT22;10824;51.632;4.950;2023-06-10T15:33:36;33.30;1.00
21331;DHT22;10824;51.632;4.950;2023-06-10T15:36:03;33.20;1.00
21331;DHT22;10824;51.632;4.950;2023-06-10T15:38:32;33.10;1.00
21331;DHT22;10824;51.632;4.950;2023-06-10T15:40:59;33.30;1.00
21331;DHT22;10824;51.632;4.950;2023-06-10T15:43:28;33.30;1.00
21331;DHT22;10824;51.632;4.950;2023-06-10T15:45:55;33.30;1.00
21331;DHT22;10824;51.632;4.950;2023-06-10T15:48:23;33.30;1.00
21331;DHT22;10824;51.632;4.950;2023-06-10T15:50:50;33.20;1.00
21331;DHT22;10824;51.632;4.950;2023-06-10T15:53:17;33.40;1.00
21331;DHT22;10824;51.632;4.950;2023-06-10T15:55:44;33.50;1.00
21331;DHT22;10824;51.632;4.950;2023-06-10T15:58:11;33.30;1.00
21331;DHT22;10824;51.632;4.950;2023-06-10T16:00:38;33.60;1.00
21331;DHT22;10824;51.632;4.950;2023-06-10T16:03:06;33.60;1.00
21331;DHT22;10824;51.632;4.950;2023-06-10T16:05:33;33.60;1.00
21331;DHT22;10824;51.632;4.950;2023-06-10T16:08:00;33.50;1.00
21331;DHT22;10824;51.632;4.950;2023-06-10T16:10:29;33.80;1.00
21331;DHT22;10824;51.632;4.950;2023-06-10T16:12:58;33.90;1.00